createdAt,value
2023-02-11T00:02:19.996Z,66.92
2023-02-11T00:04:52.412Z,67.28
2023-02-11T00:07:24.428Z,66.70
2023-02-11T00:09:56.937Z,66.96
2023-02-11T00:12:46.404Z,66.79
2023-02-11T00:15:37.379Z,66.10
2023-02-11T00:18:09.422Z,67.13
2023-02-11T00:20:44.999Z,66.29
2023-02-11T00:23:16.823Z,67.64
2023-02-11T00:25:49.888Z,67.50
2023-02-11T00:28:21.786Z,68.89
2023-02-11T00:31:04.076Z,68.90
2023-02-11T00:33:36.021Z,68.38
2023-02-11T00:36:10.975Z,67.83
2023-02-11T00:38:43.028Z,67.51
2023-02-11T00:41:16.315Z,66.82
2023-02-11T00:43:48.385Z,67.38
2023-02-11T00:46:24.600Z,66.51
2023-02-11T00:48:58.139Z,65.64
2023-02-11T00:51:31.808Z,67.11
2023-02-11T00:54:05.765Z,67.58
2023-02-11T00:56:38.321Z,67.39
2023-02-11T00:59:09.522Z,67.22
2023-02-11T01:01:45.121Z,68.28
2023-02-11T01:04:16.562Z,66.93
2023-02-11T01:06:49.694Z,68.01
2023-02-11T01:09:21.759Z,67.85
2023-02-11T01:11:56.443Z,67.85
2023-02-11T01:14:28.096Z,68.25
2023-02-11T01:17:05.903Z,68.25
2023-02-11T01:19:37.259Z,68.50
2023-02-11T01:22:09.129Z,67.91
2023-02-11T01:24:41.326Z,67.21
2023-02-11T01:27:17.680Z,67.10
2023-02-11T01:29:51.671Z,67.31
2023-02-11T01:32:26.507Z,67.68
2023-02-11T01:34:58.528Z,67.95
2023-02-11T01:37:33.088Z,67.72
2023-02-11T01:40:05.655Z,67.85
2023-02-11T01:42:38.100Z,69.05
2023-02-11T01:45:39.971Z,68.97
2023-02-11T01:48:17.262Z,68.50
2023-02-11T01:50:52.526Z,68.31
2023-02-11T01:54:06.563Z,68.08
2023-02-11T01:56:52.612Z,67.50
2023-02-11T01:59:30.905Z,66.82
2023-02-11T02:02:09.955Z,67.53
2023-02-11T02:05:01.194Z,68.09
2023-02-11T02:07:39.352Z,69.11
2023-02-11T02:10:17.487Z,68.50
2023-02-11T02:12:49.303Z,68.08
2023-02-11T02:15:30.758Z,67.75
2023-02-11T02:18:14.487Z,68.12
2023-02-11T02:21:22.259Z,68.93
2023-02-11T02:24:33.909Z,69.70
2023-02-11T02:27:26.920Z,68.14
2023-02-11T02:30:19.817Z,68.18
2023-02-11T02:33:20.561Z,67.81
2023-02-11T02:36:05.782Z,69.06
2023-02-11T02:38:42.577Z,70.18
2023-02-11T02:41:17.013Z,69.18
2023-02-11T02:43:51.204Z,70.21
2023-02-11T02:46:25.214Z,69.92
2023-02-11T02:49:00.708Z,70.00
2023-02-11T02:52:02.618Z,69.57
2023-02-11T02:55:00.540Z,70.47
2023-02-11T02:57:46.150Z,69.85
2023-02-11T03:00:37.328Z,69.80
2023-02-11T03:03:30.378Z,69.35
2023-02-11T03:06:11.011Z,69.24
2023-02-11T03:09:04.120Z,69.91
2023-02-11T03:11:40.754Z,70.44
2023-02-11T03:14:20.235Z,69.76
2023-02-11T03:16:57.965Z,70.12
2023-02-11T03:19:34.023Z,70.53
2023-02-11T03:22:14.224Z,69.55
2023-02-11T03:24:45.876Z,69.55
2023-02-11T03:27:24.950Z,71.26
2023-02-11T03:30:02.681Z,71.17
2023-02-11T03:32:38.969Z,69.24
2023-02-11T03:35:17.609Z,70.78
2023-02-11T03:37:57.524Z,70.82
2023-02-11T03:40:32.343Z,73.01
2023-02-11T03:43:11.483Z,72.19
2023-02-11T03:45:45.284Z,72.89
2023-02-11T03:48:22.622Z,71.45
2023-02-11T03:50:58.604Z,71.32
2023-02-11T03:53:32.867Z,71.55
2023-02-11T03:56:08.567Z,72.19
2023-02-11T03:58:41.645Z,73.37
2023-02-11T04:01:13.080Z,72.17
2023-02-11T04:03:45.103Z,72.81
2023-02-11T04:06:16.962Z,73.02
2023-02-11T04:09:04.264Z,74.97
2023-02-11T04:11:41.778Z,74.29
2023-02-11T04:14:17.256Z,72.71
2023-02-11T04:16:49.474Z,72.79
2023-02-11T04:19:21.166Z,73.57
2023-02-11T04:21:52.663Z,72.95
2023-02-11T04:24:28.442Z,73.70
2023-02-11T04:27:03.938Z,72.90
2023-02-11T04:29:35.635Z,72.50
2023-02-11T04:32:07.193Z,73.34
2023-02-11T04:34:38.933Z,74.72
2023-02-11T04:37:10.500Z,75.91
2023-02-11T04:39:44.739Z,76.45
2023-02-11T04:42:16.270Z,76.43
2023-02-11T04:44:48.128Z,77.66
2023-02-11T04:47:19.625Z,78.45
2023-02-11T04:52:49.335Z,75.86
2023-02-11T04:55:26.157Z,76.48
2023-02-11T04:57:57.828Z,78.39
2023-02-11T05:00:29.213Z,78.53
2023-02-11T05:03:00.401Z,76.84
2023-02-11T05:05:32.441Z,76.10
2023-02-11T05:08:03.690Z,75.50
2023-02-11T05:10:39.183Z,76.71
2023-02-11T05:13:10.449Z,76.69
2023-02-11T05:15:42.258Z,76.32
2023-02-11T05:18:15.036Z,76.22
2023-02-11T05:20:47.734Z,77.64
2023-02-11T05:23:20.452Z,78.51
2023-02-11T05:25:54.908Z,76.97
2023-02-11T05:28:26.435Z,77.57
2023-02-11T05:30:59.627Z,77.70
2023-02-11T05:33:31.480Z,77.89
2023-02-11T05:36:03.700Z,77.34
2023-02-11T05:38:36.660Z,78.72
2023-02-11T05:41:10.879Z,80.30
2023-02-11T05:43:44.971Z,79.33
2023-02-11T05:46:17.058Z,80.60
2023-02-11T05:48:48.749Z,82.23
2023-02-11T05:51:23.218Z,81.20
2023-02-11T05:53:54.343Z,78.84
2023-02-11T05:56:30.945Z,78.55
2023-02-11T05:59:02.860Z,80.91
2023-02-11T06:01:35.211Z,81.52
2023-02-11T06:04:06.424Z,81.74
2023-02-11T06:06:38.180Z,81.48
2023-02-11T06:09:10.215Z,80.98
2023-02-11T06:11:44.589Z,81.42
2023-02-11T06:14:16.772Z,79.91
2023-02-11T06:16:48.864Z,82.34
2023-02-11T06:19:20.591Z,82.57
2023-02-11T06:21:52.679Z,83.90
2023-02-11T06:24:47.759Z,86.00
2023-02-11T06:27:19.621Z,86.09
2023-02-11T06:29:52.684Z,85.02
2023-02-11T06:32:42.836Z,83.30
2023-02-11T06:35:15.747Z,84.49
2023-02-11T06:37:50.110Z,84.39
2023-02-11T06:40:22.578Z,83.84
2023-02-11T06:42:57.789Z,85.59
2023-02-11T06:45:29.754Z,85.11
2023-02-11T06:48:02.189Z,84.81
2023-02-11T06:50:34.456Z,84.08
2023-02-11T06:53:07.435Z,83.57
2023-02-11T06:55:39.568Z,83.24
2023-02-11T06:58:14.728Z,82.49
2023-02-11T07:00:46.803Z,84.32
2023-02-11T07:03:19.312Z,84.15
2023-02-11T07:05:51.894Z,83.50
2023-02-11T07:08:24.989Z,85.95
2023-02-11T07:10:57.179Z,86.04
2023-02-11T07:13:32.238Z,86.04
2023-02-11T07:16:08.525Z,86.08
2023-02-11T07:18:41.110Z,84.59
2023-02-11T07:21:16.706Z,85.33
2023-02-11T07:23:49.592Z,85.95
2023-02-11T07:26:24.347Z,84.70
2023-02-11T07:28:59.918Z,84.60
2023-02-11T07:31:33.947Z,83.99
2023-02-11T07:34:06.710Z,87.87
2023-02-11T07:36:38.828Z,88.84
2023-02-11T07:39:11.170Z,87.30
2023-02-11T07:41:43.268Z,85.23
2023-02-11T07:44:18.966Z,84.16
2023-02-11T07:46:51.031Z,85.15
2023-02-11T07:49:23.858Z,87.79
2023-02-11T07:51:55.937Z,86.10
2023-02-11T07:54:28.409Z,84.40
2023-02-11T12:16:45.620Z,99.62
2023-02-11T12:19:32.396Z,100.00
2023-02-11T12:22:13.021Z,99.59
2023-02-11T12:24:59.923Z,99.42
2023-02-11T12:27:47.580Z,100.00
2023-02-11T12:30:47.596Z,100.00
2023-02-11T12:33:31.127Z,99.63
2023-02-11T12:36:11.938Z,99.97
2023-02-11T12:39:01.140Z,100.00
2023-02-11T12:42:07.647Z,100.00
2023-02-11T12:44:59.178Z,100.00
2023-02-11T12:47:41.341Z,100.00
2023-02-11T12:50:20.739Z,99.59
2023-02-11T12:53:11.601Z,100.00
2023-02-11T12:55:50.282Z,100.00
2023-02-11T12:58:35.586Z,100.00
2023-02-11T13:01:22.524Z,98.53
2023-02-11T13:04:02.949Z,98.41
2023-02-11T13:06:43.104Z,96.76
2023-02-11T13:09:21.179Z,96.29
2023-02-11T13:11:54.789Z,98.14
2023-02-11T13:14:32.739Z,98.09
2023-02-11T13:17:09.211Z,98.55
2023-02-11T13:19:53.058Z,100.00
2023-02-11T13:22:35.000Z,100.00
2023-02-11T13:25:22.279Z,99.64
2023-02-11T13:28:02.538Z,100.00
2023-02-11T13:30:37.216Z,100.00
2023-02-11T13:33:34.140Z,100.00
2023-02-11T13:36:37.176Z,100.00
2023-02-11T13:39:10.198Z,98.46
2023-02-11T13:41:46.415Z,96.75
2023-02-11T13:44:38.856Z,95.62
2023-02-11T13:47:25.634Z,96.60
2023-02-11T13:49:57.856Z,97.93
2023-02-11T13:52:45.654Z,96.63
2023-02-11T13:55:27.798Z,98.25
2023-02-11T13:58:40.477Z,99.37
2023-02-11T14:01:12.630Z,100.00
2023-02-11T14:04:34.888Z,100.00
2023-02-11T14:07:43.969Z,100.00
2023-02-11T14:10:45.489Z,99.46
2023-02-11T14:13:28.363Z,100.00
2023-02-11T14:16:11.016Z,100.00
2023-02-11T14:19:03.431Z,100.00
2023-02-11T14:21:41.214Z,100.00
2023-02-11T14:24:48.773Z,100.00
2023-02-11T14:27:28.612Z,100.00
2023-02-11T14:30:33.275Z,100.00
2023-02-11T14:33:43.256Z,100.00
2023-02-11T14:36:30.181Z,100.00
2023-02-11T14:39:12.199Z,100.00
2023-02-11T14:41:46.645Z,100.00
2023-02-11T14:44:23.020Z,100.00
2023-02-11T14:46:59.700Z,100.00
2023-02-11T14:49:36.956Z,100.00
2023-02-11T14:52:20.158Z,100.00
2023-02-11T14:54:54.713Z,100.00
2023-02-11T14:57:28.537Z,99.26
2023-02-11T15:00:07.216Z,100.00
2023-02-11T15:03:04.362Z,100.00
2023-02-11T15:05:37.833Z,100.00
2023-02-11T15:08:20.685Z,100.00
2023-02-11T15:10:58.044Z,100.00
2023-02-11T15:13:34.095Z,100.00
2023-02-11T15:16:18.665Z,100.00
2023-02-11T15:18:57.873Z,100.00
2023-02-11T15:21:34.414Z,100.00
2023-02-11T15:24:08.897Z,100.00
2023-02-11T15:26:40.633Z,100.00
2023-02-11T15:29:23.137Z,100.00
2023-02-11T15:32:12.432Z,100.00
2023-02-11T15:34:54.035Z,100.00
2023-02-11T15:37:30.067Z,100.00
2023-02-11T15:40:14.756Z,100.00
2023-02-11T15:43:02.834Z,100.00
2023-02-11T15:45:38.313Z,100.00
2023-02-11T15:48:16.317Z,100.00
2023-02-11T15:50:59.161Z,100.00
2023-02-11T15:53:40.792Z,100.00
2023-02-11T15:56:27.671Z,100.00
2023-02-11T15:59:03.005Z,100.00
2023-02-11T16:01:39.894Z,100.00
2023-02-11T16:04:20.286Z,100.00
2023-02-11T16:06:57.122Z,100.00
2023-02-11T16:09:36.139Z,100.00
2023-02-11T16:12:30.856Z,100.00
2023-02-11T16:15:25.971Z,100.00
2023-02-11T16:17:57.901Z,100.00
2023-02-11T16:20:29.955Z,100.00
2023-02-11T16:23:06.824Z,100.00
2023-02-11T16:25:39.612Z,100.00
2023-02-11T16:28:18.641Z,100.00
2023-02-11T16:31:00.324Z,100.00
2023-02-11T16:40:23.983Z,100.00
2023-02-11T16:43:13.999Z,100.00
2023-02-11T16:45:55.008Z,100.00
2023-02-11T16:48:49.741Z,99.54
2023-02-11T16:51:22.286Z,99.16
2023-02-11T16:54:04.434Z,98.83
2023-02-11T16:57:06.775Z,97.76
2023-02-11T16:59:42.545Z,100.00
2023-02-11T17:02:41.356Z,100.00
2023-02-11T17:05:23.532Z,100.00
2023-02-11T17:08:00.767Z,98.30
2023-02-11T17:10:33.737Z,97.67
2023-02-11T17:13:08.295Z,95.06
2023-02-11T17:15:39.933Z,100.00
2023-02-11T17:18:15.841Z,100.00
2023-02-11T17:20:47.723Z,99.90
2023-02-11T17:23:19.723Z,100.00
2023-02-11T17:29:02.158Z,98.63
2023-02-11T17:31:35.005Z,96.60
2023-02-11T17:34:07.553Z,99.47
2023-02-11T17:36:41.852Z,99.88
2023-02-11T17:39:15.250Z,99.55
2023-02-11T17:41:48.255Z,98.79
2023-02-11T17:44:23.158Z,97.65
2023-02-11T17:46:55.891Z,98.64
2023-02-11T17:49:28.529Z,100.00
2023-02-11T17:52:01.157Z,100.00
2023-02-11T17:54:33.659Z,100.00
2023-02-11T17:57:06.474Z,99.60
2023-02-11T17:59:41.693Z,100.00
2023-02-11T18:02:15.401Z,100.00
2023-02-11T18:04:47.894Z,98.85
2023-02-11T18:07:20.596Z,96.81
2023-02-11T18:09:53.201Z,97.44
2023-02-11T18:12:28.532Z,95.91
2023-02-11T18:15:06.873Z,94.65
2023-02-11T18:17:39.953Z,96.05
2023-02-11T18:20:13.730Z,97.13
2023-02-11T18:22:46.392Z,97.27
2023-02-11T18:25:19.254Z,95.49
2023-02-11T18:27:51.921Z,95.27
2023-02-11T18:30:27.118Z,98.29
2023-02-11T18:32:59.824Z,99.88
2023-02-11T18:35:32.097Z,97.02
2023-02-11T18:38:08.564Z,95.69
2023-02-11T18:40:43.218Z,98.39
2023-02-11T18:43:15.457Z,96.63
2023-02-11T18:45:52.229Z,95.76
2023-02-11T18:48:24.738Z,95.76
2023-02-11T18:50:58.158Z,96.65
2023-02-11T18:53:30.541Z,95.89
2023-02-11T18:56:02.399Z,97.60
2023-02-11T18:58:34.558Z,97.07
2023-02-11T19:01:15.480Z,95.44
2023-02-11T19:03:48.561Z,99.00
2023-02-11T19:06:22.603Z,100.00
2023-02-11T19:08:58.990Z,99.29
2023-02-11T19:11:45.199Z,99.49
2023-02-11T19:14:21.142Z,100.00
2023-02-11T19:16:57.357Z,100.00
2023-02-11T19:19:31.615Z,100.00
2023-02-11T19:22:09.118Z,98.78
2023-02-11T19:24:42.386Z,99.71
2023-02-11T19:27:20.236Z,97.54
2023-02-11T19:30:11.017Z,97.10
2023-02-11T19:32:45.720Z,95.91
2023-02-11T19:35:17.937Z,95.39
2023-02-11T19:37:49.726Z,94.33
2023-02-11T19:40:22.556Z,94.14
2023-02-11T19:42:54.504Z,96.01
2023-02-11T19:45:27.167Z,96.31
2023-02-11T19:48:02.129Z,96.64
2023-02-11T19:50:34.407Z,97.69
2023-02-11T19:53:06.178Z,96.24
2023-02-11T19:55:38.717Z,94.93
2023-02-11T19:58:10.495Z,96.17
2023-02-11T20:00:43.197Z,96.24
2023-02-11T20:03:17.941Z,99.02
2023-02-11T20:05:50.845Z,97.26
2023-02-11T20:08:23.218Z,98.55
2023-02-11T20:10:55.402Z,97.79
2023-02-11T20:13:28.455Z,95.68
2023-02-11T20:16:00.815Z,95.57
2023-02-11T20:18:35.423Z,96.17
2023-02-11T20:21:10.861Z,95.69
2023-02-11T20:23:45.151Z,99.24
2023-02-11T20:26:19.893Z,97.62
2023-02-11T20:28:53.812Z,97.96
2023-02-11T20:31:27.177Z,97.26
2023-02-11T20:34:02.282Z,96.03
2023-02-11T20:36:38.572Z,95.51
2023-02-11T20:39:11.364Z,94.88
2023-02-11T20:41:46.370Z,94.71
2023-02-11T20:44:19.135Z,93.66
2023-02-11T20:46:51.807Z,93.21
2023-02-11T20:49:28.725Z,92.27
2023-02-11T20:52:01.307Z,91.98
2023-02-11T20:55:07.745Z,95.03
2023-02-11T20:57:39.879Z,94.25
2023-02-11T21:00:14.636Z,93.60
2023-02-11T21:02:54.918Z,92.81
2023-02-11T21:05:29.899Z,91.22
2023-02-11T21:08:02.864Z,91.97
2023-02-11T21:10:35.245Z,91.40
2023-02-11T21:13:07.845Z,90.28
2023-02-11T21:15:40.182Z,89.54
2023-02-11T21:18:13.754Z,92.87
2023-02-11T21:20:52.869Z,90.25
2023-02-11T21:23:26.350Z,94.06
2023-02-11T21:25:58.830Z,92.28
2023-02-11T21:28:31.570Z,91.35
2023-02-11T21:31:03.866Z,91.93
2023-02-11T21:33:36.793Z,92.52
2023-02-11T21:36:11.761Z,90.42
2023-02-11T21:38:43.815Z,91.92
2023-02-11T21:41:16.015Z,91.97
2023-02-11T21:43:49.194Z,90.48
2023-02-11T21:46:22.828Z,90.85
2023-02-11T21:48:55.088Z,92.34
2023-02-11T21:51:30.714Z,92.14
2023-02-11T21:54:03.995Z,91.14
2023-02-11T21:56:36.701Z,89.77
2023-02-11T21:59:09.006Z,90.90
2023-02-11T22:01:42.059Z,89.26
2023-02-11T22:04:14.534Z,90.94
2023-02-11T22:06:49.596Z,90.69
2023-02-11T22:09:21.776Z,90.25
2023-02-11T22:11:53.968Z,93.38
2023-02-11T22:14:26.055Z,94.86
2023-02-11T22:16:58.947Z,94.86
2023-02-11T22:19:32.921Z,94.41
2023-02-11T22:22:08.232Z,92.78
2023-02-11T22:24:40.948Z,92.34
2023-02-11T22:27:14.441Z,94.08
2023-02-11T22:29:46.100Z,94.67
2023-02-11T22:32:20.303Z,93.00
2023-02-11T22:34:53.405Z,91.14
2023-02-11T22:37:27.829Z,92.22
2023-02-11T22:39:59.820Z,91.28
2023-02-11T22:42:31.848Z,91.77
2023-02-11T22:45:03.773Z,92.50
2023-02-11T22:47:36.571Z,93.86
2023-02-11T22:50:09.815Z,93.25
2023-02-11T22:52:45.487Z,92.25
2023-02-11T22:55:17.805Z,90.96
2023-02-11T22:57:49.531Z,91.32
2023-02-11T23:00:24.820Z,90.98
2023-02-11T23:02:56.277Z,90.01
2023-02-11T23:05:29.356Z,89.49
2023-02-11T23:08:05.417Z,94.48
2023-02-11T23:10:45.928Z,94.64
2023-02-11T23:13:20.146Z,93.65
2023-02-11T23:15:51.890Z,92.85
2023-02-11T23:18:23.952Z,92.30
2023-02-11T23:20:56.139Z,90.51
2023-02-11T23:23:31.084Z,90.50
2023-02-11T23:26:06.486Z,91.14
2023-02-11T23:28:38.636Z,92.58
2023-02-11T23:31:19.678Z,91.21
2023-02-11T23:33:51.901Z,91.00
2023-02-11T23:36:24.760Z,94.60
2023-02-11T23:38:58.879Z,93.16
2023-02-11T23:41:32.118Z,90.92
2023-02-11T23:44:03.892Z,91.05
2023-02-11T23:46:36.250Z,92.18
2023-02-11T23:49:07.596Z,92.87
2023-02-11T23:51:39.275Z,92.20
2023-02-11T23:54:15.209Z,91.04
2023-02-11T23:56:47.300Z,89.61
2023-02-11T23:59:22.551Z,91.77
